Pagina principale
METAR-TAF:

METAR-TAF

Aeroporti :

Aeroporto di Treviso-Sant'Angelo

Treviso, Italia

latitudine: 45-39N, longitudine: 012-11E, altezza: 18 m

Osservazione

Il bollettino è stato emesso 21 minuti fa, alle 14:50 UTC
Vento 2 kt da direzioni variabili
Temperature 8°C
Umidità 93%
Pressione 1015 hPa
Visibilità: 7000 m
Nubi sparse ad un'altezza di 1000 ft

METAR: LIPH 061450Z VRB02KT 7000 SCT010 08/07 Q1015

Ora: 16:11 (15:11 UTC)

Previsione

Il bollettino è stato emesso 4 ore e 11 minuti fa, alle 11:00 UTC
Previsione valida dal 06 alle 12 UTC al 07 alle 12 UTC
Vento 4 kt da direzioni variabili
Visibilità: 2500 m
Nuvoloso ad un'altezza di 500 ft
foschia
Evoluzione graduale
dal 06 alle 13 UTC al 06 alle 15 UTC
Visibilità: 6000 m
Temporaneamente
dal 06 alle 18 UTC al 07 alle 02 UTC
Visibilità: 0600 m
nebbia

TAF: LIPH 061100Z 0612/0712 VRB04KT 2500 BR BKN005 BECMG 0613/0615 6000 NSC TEMPO 0618/0702 0600 FG

Osservazioni e previsioni meteorologiche di più di 4000 aeroporti (messaggi METAR e TAF).

Le stazioni disponibili sono rappresentate dai dischi gialli e rossi sulla carta.

Puntare il mouse per vedere il nome della stazione.

Clicca sopra per visualizzare le osservazioni e previsioni meteorologiche.

Per cambiare la mappa : fare clic sui pulsanti verdi con una croce nera per ingrandire, il pulsante verde con un trattino per diminuire, o sulla freccia verde per le mappe adiacenti.


METAR-TAF: